sensor_id;sensor_type;location;lat;lon;timestamp;P1;durP1;ratioP1;P2;durP2;ratioP2
12774;SDS011;6451;42.630;23.382;2024-01-06T00:00:45;9.70;;;6.00;;
12774;SDS011;6451;42.630;23.382;2024-01-06T00:03:14;7.23;;;5.43;;
12774;SDS011;6451;42.630;23.382;2024-01-06T00:05:41;7.03;;;4.73;;
12774;SDS011;6451;42.630;23.382;2024-01-06T00:08:08;10.60;;;6.07;;
12774;SDS011;6451;42.630;23.382;2024-01-06T00:10:36;4.57;;;3.90;;
12774;SDS011;6451;42.630;23.382;2024-01-06T00:13:04;5.50;;;3.50;;
12774;SDS011;6451;42.630;23.382;2024-01-06T00:15:31;9.67;;;4.27;;
12774;SDS011;6451;42.630;23.382;2024-01-06T00:17:58;6.80;;;4.43;;
12774;SDS011;6451;42.630;23.382;2024-01-06T00:20:25;6.60;;;3.90;;
12774;SDS011;6451;42.630;23.382;2024-01-06T00:22:52;9.70;;;5.67;;
12774;SDS011;6451;42.630;23.382;2024-01-06T00:25:21;6.43;;;4.67;;
12774;SDS011;6451;42.630;23.382;2024-01-06T00:27:48;7.87;;;5.57;;
12774;SDS011;6451;42.630;23.382;2024-01-06T00:30:16;11.77;;;6.60;;
12774;SDS011;6451;42.630;23.382;2024-01-06T00:32:43;7.83;;;6.13;;
12774;SDS011;6451;42.630;23.382;2024-01-06T00:35:10;14.10;;;6.77;;
12774;SDS011;6451;42.630;23.382;2024-01-06T00:37:37;13.47;;;7.10;;
12774;SDS011;6451;42.630;23.382;2024-01-06T00:40:07;11.70;;;7.63;;
12774;SDS011;6451;42.630;23.382;2024-01-06T00:42:35;15.67;;;9.30;;
12774;SDS011;6451;42.630;23.382;2024-01-06T00:45:06;14.00;;;9.47;;
12774;SDS011;6451;42.630;23.382;2024-01-06T00:47:34;16.83;;;8.20;;
12774;SDS011;6451;42.630;23.382;2024-01-06T00:50:01;14.57;;;8.53;;
12774;SDS011;6451;42.630;23.382;2024-01-06T00:52:29;13.00;;;8.90;;
12774;SDS011;6451;42.630;23.382;2024-01-06T00:54:56;14.17;;;8.10;;
12774;SDS011;6451;42.630;23.382;2024-01-06T00:57:23;13.07;;;8.20;;
12774;SDS011;6451;42.630;23.382;2024-01-06T00:59:50;11.97;;;7.93;;
12774;SDS011;6451;42.630;23.382;2024-01-06T01:02:17;15.97;;;7.97;;
12774;SDS011;6451;42.630;23.382;2024-01-06T01:04:45;13.70;;;7.73;;
12774;SDS011;6451;42.630;23.382;2024-01-06T01:07:12;14.37;;;7.73;;
12774;SDS011;6451;42.630;23.382;2024-01-06T01:09:39;12.80;;;7.20;;
12774;SDS011;6451;42.630;23.382;2024-01-06T01:12:07;13.83;;;7.33;;
12774;SDS011;6451;42.630;23.382;2024-01-06T01:14:34;13.17;;;6.63;;
12774;SDS011;6451;42.630;23.382;2024-01-06T01:17:02;8.93;;;6.73;;
12774;SDS011;6451;42.630;23.382;2024-01-06T01:19:29;10.47;;;7.37;;
12774;SDS011;6451;42.630;23.382;2024-01-06T01:21:58;10.60;;;6.97;;
12774;SDS011;6451;42.630;23.382;2024-01-06T01:24:28;12.33;;;6.70;;
12774;SDS011;6451;42.630;23.382;2024-01-06T01:26:56;11.67;;;6.50;;
12774;SDS011;6451;42.630;23.382;2024-01-06T01:29:22;14.03;;;6.23;;
12774;SDS011;6451;42.630;23.382;2024-01-06T01:31:50;10.23;;;6.70;;
12774;SDS011;6451;42.630;23.382;2024-01-06T01:34:17;9.93;;;6.63;;
12774;SDS011;6451;42.630;23.382;2024-01-06T01:36:44;9.17;;;6.07;;
12774;SDS011;6451;42.630;23.382;2024-01-06T01:39:13;8.90;;;5.30;;
12774;SDS011;6451;42.630;23.382;2024-01-06T01:41:40;7.17;;;5.73;;
12774;SDS011;6451;42.630;23.382;2024-01-06T01:44:07;8.13;;;5.23;;
12774;SDS011;6451;42.630;23.382;2024-01-06T01:46:34;10.03;;;5.43;;
12774;SDS011;6451;42.630;23.382;2024-01-06T01:49:03;7.57;;;5.10;;
12774;SDS011;6451;42.630;23.382;2024-01-06T01:51:32;8.00;;;5.17;;
12774;SDS011;6451;42.630;23.382;2024-01-06T01:54:01;6.27;;;4.60;;
12774;SDS011;6451;42.630;23.382;2024-01-06T01:56:31;7.17;;;4.53;;
12774;SDS011;6451;42.630;23.382;2024-01-06T01:59:00;7.13;;;4.23;;
12774;SDS011;6451;42.630;23.382;2024-01-06T02:01:30;5.33;;;4.27;;
12774;SDS011;6451;42.630;23.382;2024-01-06T02:03:57;9.37;;;5.90;;
12774;SDS011;6451;42.630;23.382;2024-01-06T02:06:24;11.37;;;6.13;;
12774;SDS011;6451;42.630;23.382;2024-01-06T02:08:51;8.17;;;5.37;;
12774;SDS011;6451;42.630;23.382;2024-01-06T02:11:19;8.37;;;5.87;;
12774;SDS011;6451;42.630;23.382;2024-01-06T02:13:49;7.90;;;4.80;;
12774;SDS011;6451;42.630;23.382;2024-01-06T02:16:16;7.27;;;5.13;;
12774;SDS011;6451;42.630;23.382;2024-01-06T02:18:46;8.13;;;6.10;;
12774;SDS011;6451;42.630;23.382;2024-01-06T02:21:13;9.87;;;6.43;;
12774;SDS011;6451;42.630;23.382;2024-01-06T02:23:42;9.20;;;5.13;;
12774;SDS011;6451;42.630;23.382;2024-01-06T02:26:09;8.63;;;5.60;;
12774;SDS011;6451;42.630;23.382;2024-01-06T02:28:38;7.20;;;5.40;;
12774;SDS011;6451;42.630;23.382;2024-01-06T02:31:06;10.10;;;7.10;;
12774;SDS011;6451;42.630;23.382;2024-01-06T02:33:33;12.67;;;8.10;;
12774;SDS011;6451;42.630;23.382;2024-01-06T02:36:01;12.00;;;8.23;;
12774;SDS011;6451;42.630;23.382;2024-01-06T02:38:29;12.87;;;9.00;;
12774;SDS011;6451;42.630;23.382;2024-01-06T02:40:57;14.27;;;9.60;;
12774;SDS011;6451;42.630;23.382;2024-01-06T02:43:25;16.17;;;10.53;;
12774;SDS011;6451;42.630;23.382;2024-01-06T02:45:55;16.03;;;11.17;;
12774;SDS011;6451;42.630;23.382;2024-01-06T02:48:22;18.60;;;11.20;;
12774;SDS011;6451;42.630;23.382;2024-01-06T02:50:52;16.93;;;12.03;;
12774;SDS011;6451;42.630;23.382;2024-01-06T02:53:22;17.47;;;11.60;;
12774;SDS011;6451;42.630;23.382;2024-01-06T02:55:49;17.60;;;12.23;;
12774;SDS011;6451;42.630;23.382;2024-01-06T02:58:24;17.20;;;12.00;;
12774;SDS011;6451;42.630;23.382;2024-01-06T03:00:50;21.07;;;11.90;;
12774;SDS011;6451;42.630;23.382;2024-01-06T03:03:17;18.17;;;11.57;;
12774;SDS011;6451;42.630;23.382;2024-01-06T03:05:45;13.77;;;9.87;;
12774;SDS011;6451;42.630;23.382;2024-01-06T03:08:14;13.40;;;9.30;;
12774;SDS011;6451;42.630;23.382;2024-01-06T03:10:41;10.57;;;7.70;;
12774;SDS011;6451;42.630;23.382;2024-01-06T03:13:08;12.70;;;7.60;;
12774;SDS011;6451;42.630;23.382;2024-01-06T03:15:37;11.10;;;7.20;;
12774;SDS011;6451;42.630;23.382;2024-01-06T03:18:04;13.90;;;7.33;;
12774;SDS011;6451;42.630;23.382;2024-01-06T03:20:31;9.90;;;7.17;;
12774;SDS011;6451;42.630;23.382;2024-01-06T03:22:58;11.07;;;7.27;;
12774;SDS011;6451;42.630;23.382;2024-01-06T03:25:26;8.77;;;7.37;;
12774;SDS011;6451;42.630;23.382;2024-01-06T03:27:53;9.77;;;6.60;;
12774;SDS011;6451;42.630;23.382;2024-01-06T03:30:21;12.53;;;6.47;;
12774;SDS011;6451;42.630;23.382;2024-01-06T03:32:49;7.93;;;6.00;;
12774;SDS011;6451;42.630;23.382;2024-01-06T03:35:19;7.50;;;6.03;;
12774;SDS011;6451;42.630;23.382;2024-01-06T03:37:48;8.20;;;5.70;;
12774;SDS011;6451;42.630;23.382;2024-01-06T03:40:15;7.77;;;5.87;;
12774;SDS011;6451;42.630;23.382;2024-01-06T03:42:42;7.73;;;5.77;;
12774;SDS011;6451;42.630;23.382;2024-01-06T03:45:09;7.77;;;6.10;;
12774;SDS011;6451;42.630;23.382;2024-01-06T03:47:36;11.50;;;6.23;;
12774;SDS011;6451;42.630;23.382;2024-01-06T03:50:05;9.67;;;6.33;;
12774;SDS011;6451;42.630;23.382;2024-01-06T03:52:33;9.40;;;6.10;;
12774;SDS011;6451;42.630;23.382;2024-01-06T03:55:00;8.23;;;5.87;;
12774;SDS011;6451;42.630;23.382;2024-01-06T03:57:27;10.23;;;5.80;;
12774;SDS011;6451;42.630;23.382;2024-01-06T03:59:57;8.23;;;6.33;;
12774;SDS011;6451;42.630;23.382;2024-01-06T04:02:24;8.97;;;6.40;;
12774;SDS011;6451;42.630;23.382;2024-01-06T04:04:52;9.13;;;5.90;;
12774;SDS011;6451;42.630;23.382;2024-01-06T04:07:21;9.77;;;6.67;;
12774;SDS011;6451;42.630;23.382;2024-01-06T04:09:47;7.70;;;6.03;;
12774;SDS011;6451;42.630;23.382;2024-01-06T04:12:14;8.27;;;5.93;;
12774;SDS011;6451;42.630;23.382;2024-01-06T04:14:41;9.93;;;5.83;;
12774;SDS011;6451;42.630;23.382;2024-01-06T04:17:08;8.57;;;6.03;;
12774;SDS011;6451;42.630;23.382;2024-01-06T04:19:35;8.30;;;5.70;;
12774;SDS011;6451;42.630;23.382;2024-01-06T04:22:02;9.37;;;5.70;;
12774;SDS011;6451;42.630;23.382;2024-01-06T04:24:31;10.13;;;5.70;;
12774;SDS011;6451;42.630;23.382;2024-01-06T04:27:02;11.60;;;6.80;;
12774;SDS011;6451;42.630;23.382;2024-01-06T04:29:30;8.33;;;6.13;;
12774;SDS011;6451;42.630;23.382;2024-01-06T04:31:57;9.10;;;6.10;;
12774;SDS011;6451;42.630;23.382;2024-01-06T04:34:24;8.23;;;5.80;;
12774;SDS011;6451;42.630;23.382;2024-01-06T04:36:51;7.67;;;5.60;;
12774;SDS011;6451;42.630;23.382;2024-01-06T04:39:18;8.17;;;5.80;;
12774;SDS011;6451;42.630;23.382;2024-01-06T04:41:46;10.73;;;6.30;;
12774;SDS011;6451;42.630;23.382;2024-01-06T04:44:13;9.47;;;6.07;;
12774;SDS011;6451;42.630;23.382;2024-01-06T04:46:40;9.60;;;5.83;;
12774;SDS011;6451;42.630;23.382;2024-01-06T04:49:07;9.53;;;5.93;;
12774;SDS011;6451;42.630;23.382;2024-01-06T04:51:34;8.67;;;6.30;;
12774;SDS011;6451;42.630;23.382;2024-01-06T04:54:01;8.80;;;6.87;;
12774;SDS011;6451;42.630;23.382;2024-01-06T04:56:27;14.07;;;9.90;;
12774;SDS011;6451;42.630;23.382;2024-01-06T04:58:56;13.13;;;9.00;;
12774;SDS011;6451;42.630;23.382;2024-01-06T05:01:23;16.27;;;9.33;;
12774;SDS011;6451;42.630;23.382;2024-01-06T05:03:50;14.27;;;9.67;;
12774;SDS011;6451;42.630;23.382;2024-01-06T05:06:18;16.30;;;9.80;;
12774;SDS011;6451;42.630;23.382;2024-01-06T05:08:44;11.50;;;9.30;;
12774;SDS011;6451;42.630;23.382;2024-01-06T05:11:11;12.47;;;8.37;;
12774;SDS011;6451;42.630;23.382;2024-01-06T05:13:38;11.80;;;7.50;;
12774;SDS011;6451;42.630;23.382;2024-01-06T05:16:07;14.37;;;8.03;;
12774;SDS011;6451;42.630;23.382;2024-01-06T05:18:35;10.00;;;7.50;;
12774;SDS011;6451;42.630;23.382;2024-01-06T05:21:03;9.97;;;6.93;;
12774;SDS011;6451;42.630;23.382;2024-01-06T05:23:30;9.07;;;7.00;;
12774;SDS011;6451;42.630;23.382;2024-01-06T05:25:58;12.07;;;7.37;;
12774;SDS011;6451;42.630;23.382;2024-01-06T05:28:25;11.90;;;7.50;;
12774;SDS011;6451;42.630;23.382;2024-01-06T05:30:52;8.43;;;6.40;;
12774;SDS011;6451;42.630;23.382;2024-01-06T05:33:21;9.73;;;6.53;;
12774;SDS011;6451;42.630;23.382;2024-01-06T05:35:48;10.87;;;6.70;;
12774;SDS011;6451;42.630;23.382;2024-01-06T05:38:15;8.27;;;6.10;;
12774;SDS011;6451;42.630;23.382;2024-01-06T05:40:43;9.40;;;6.17;;
12774;SDS011;6451;42.630;23.382;2024-01-06T05:43:11;9.70;;;5.70;;
12774;SDS011;6451;42.630;23.382;2024-01-06T05:45:41;8.37;;;5.53;;
12774;SDS011;6451;42.630;23.382;2024-01-06T05:48:09;8.50;;;5.80;;
12774;SDS011;6451;42.630;23.382;2024-01-06T05:50:37;9.93;;;5.30;;
12774;SDS011;6451;42.630;23.382;2024-01-06T05:53:06;8.43;;;5.10;;
12774;SDS011;6451;42.630;23.382;2024-01-06T05:55:33;6.73;;;5.17;;
12774;SDS011;6451;42.630;23.382;2024-01-06T05:58:03;7.43;;;5.03;;
12774;SDS011;6451;42.630;23.382;2024-01-06T06:00:36;8.13;;;5.20;;
12774;SDS011;6451;42.630;23.382;2024-01-06T06:03:04;5.87;;;4.67;;
12774;SDS011;6451;42.630;23.382;2024-01-06T06:05:32;7.07;;;4.90;;
12774;SDS011;6451;42.630;23.382;2024-01-06T06:08:01;7.20;;;4.93;;
12774;SDS011;6451;42.630;23.382;2024-01-06T06:10:28;5.97;;;4.30;;
12774;SDS011;6451;42.630;23.382;2024-01-06T06:13:06;8.10;;;4.17;;
12774;SDS011;6451;42.630;23.382;2024-01-06T06:15:36;6.10;;;4.07;;
12774;SDS011;6451;42.630;23.382;2024-01-06T06:18:04;5.57;;;4.17;;
12774;SDS011;6451;42.630;23.382;2024-01-06T06:20:31;5.93;;;4.07;;
12774;SDS011;6451;42.630;23.382;2024-01-06T06:22:59;5.37;;;4.10;;
12774;SDS011;6451;42.630;23.382;2024-01-06T06:25:27;5.60;;;4.13;;
12774;SDS011;6451;42.630;23.382;2024-01-06T06:30:29;7.07;;;4.17;;
12774;SDS011;6451;42.630;23.382;2024-01-06T06:32:56;6.23;;;4.33;;
12774;SDS011;6451;42.630;23.382;2024-01-06T06:35:23;6.20;;;4.03;;
12774;SDS011;6451;42.630;23.382;2024-01-06T06:37:50;6.10;;;4.43;;
12774;SDS011;6451;42.630;23.382;2024-01-06T06:40:19;7.13;;;4.67;;
12774;SDS011;6451;42.630;23.382;2024-01-06T06:42:46;6.20;;;4.20;;
12774;SDS011;6451;42.630;23.382;2024-01-06T06:45:13;6.90;;;4.97;;
12774;SDS011;6451;42.630;23.382;2024-01-06T06:47:40;7.07;;;4.83;;
12774;SDS011;6451;42.630;23.382;2024-01-06T06:50:07;8.57;;;4.60;;
12774;SDS011;6451;42.630;23.382;2024-01-06T06:52:34;7.37;;;4.90;;
12774;SDS011;6451;42.630;23.382;2024-01-06T06:55:01;10.30;;;6.03;;
12774;SDS011;6451;42.630;23.382;2024-01-06T06:57:30;11.17;;;5.63;;
12774;SDS011;6451;42.630;23.382;2024-01-06T06:59:57;7.10;;;5.10;;
12774;SDS011;6451;42.630;23.382;2024-01-06T07:02:25;8.13;;;4.97;;
12774;SDS011;6451;42.630;23.382;2024-01-06T07:04:52;7.27;;;4.57;;
12774;SDS011;6451;42.630;23.382;2024-01-06T07:07:19;10.50;;;6.10;;
12774;SDS011;6451;42.630;23.382;2024-01-06T07:09:46;7.20;;;4.80;;
12774;SDS011;6451;42.630;23.382;2024-01-06T07:12:13;8.17;;;5.30;;
12774;SDS011;6451;42.630;23.382;2024-01-06T07:14:42;14.53;;;5.63;;
12774;SDS011;6451;42.630;23.382;2024-01-06T07:17:09;6.77;;;5.77;;
12774;SDS011;6451;42.630;23.382;2024-01-06T07:19:36;7.93;;;5.93;;
12774;SDS011;6451;42.630;23.382;2024-01-06T07:22:04;9.20;;;6.30;;
12774;SDS011;6451;42.630;23.382;2024-01-06T07:24:31;12.47;;;6.00;;
12774;SDS011;6451;42.630;23.382;2024-01-06T07:26:58;9.97;;;5.80;;
12774;SDS011;6451;42.630;23.382;2024-01-06T07:29:27;11.03;;;5.93;;
12774;SDS011;6451;42.630;23.382;2024-01-06T07:31:55;10.07;;;5.93;;
12774;SDS011;6451;42.630;23.382;2024-01-06T07:34:22;9.87;;;6.00;;
12774;SDS011;6451;42.630;23.382;2024-01-06T07:36:50;9.70;;;6.30;;
12774;SDS011;6451;42.630;23.382;2024-01-06T07:39:17;11.73;;;6.50;;
12774;SDS011;6451;42.630;23.382;2024-01-06T07:41:44;10.10;;;6.47;;
12774;SDS011;6451;42.630;23.382;2024-01-06T07:44:11;12.27;;;6.30;;
12774;SDS011;6451;42.630;23.382;2024-01-06T07:46:38;10.53;;;6.00;;
12774;SDS011;6451;42.630;23.382;2024-01-06T07:49:07;11.80;;;5.40;;
12774;SDS011;6451;42.630;23.382;2024-01-06T07:51:34;9.57;;;5.30;;
12774;SDS011;6451;42.630;23.382;2024-01-06T07:54:01;9.60;;;4.67;;
12774;SDS011;6451;42.630;23.382;2024-01-06T07:56:28;10.37;;;4.33;;
12774;SDS011;6451;42.630;23.382;2024-01-06T07:58:54;8.23;;;4.30;;
12774;SDS011;6451;42.630;23.382;2024-01-06T08:01:21;5.73;;;4.40;;
12774;SDS011;6451;42.630;23.382;2024-01-06T08:03:48;8.33;;;4.60;;
12774;SDS011;6451;42.630;23.382;2024-01-06T08:06:18;7.00;;;4.23;;
12774;SDS011;6451;42.630;23.382;2024-01-06T08:08:45;6.37;;;3.90;;
12774;SDS011;6451;42.630;23.382;2024-01-06T08:11:12;9.40;;;3.83;;
12774;SDS011;6451;42.630;23.382;2024-01-06T08:13:39;4.73;;;3.73;;
12774;SDS011;6451;42.630;23.382;2024-01-06T08:16:06;7.93;;;4.63;;
12774;SDS011;6451;42.630;23.382;2024-01-06T08:18:33;9.30;;;4.07;;
12774;SDS011;6451;42.630;23.382;2024-01-06T08:21:00;8.33;;;4.43;;
12774;SDS011;6451;42.630;23.382;2024-01-06T08:23:28;6.47;;;3.97;;
12774;SDS011;6451;42.630;23.382;2024-01-06T08:25:55;7.20;;;3.90;;
12774;SDS011;6451;42.630;23.382;2024-01-06T08:28:22;7.47;;;4.47;;
12774;SDS011;6451;42.630;23.382;2024-01-06T08:30:49;5.30;;;3.77;;
12774;SDS011;6451;42.630;23.382;2024-01-06T08:33:16;8.73;;;5.47;;
12774;SDS011;6451;42.630;23.382;2024-01-06T08:35:43;5.47;;;4.40;;
12774;SDS011;6451;42.630;23.382;2024-01-06T08:38:10;4.60;;;3.70;;
12774;SDS011;6451;42.630;23.382;2024-01-06T08:40:39;9.27;;;4.20;;
12774;SDS011;6451;42.630;23.382;2024-01-06T08:43:06;8.63;;;4.83;;
12774;SDS011;6451;42.630;23.382;2024-01-06T08:45:34;8.83;;;4.63;;
12774;SDS011;6451;42.630;23.382;2024-01-06T08:48:01;5.60;;;4.30;;
12774;SDS011;6451;42.630;23.382;2024-01-06T08:50:28;7.47;;;4.50;;
12774;SDS011;6451;42.630;23.382;2024-01-06T08:52:55;4.87;;;4.13;;
12774;SDS011;6451;42.630;23.382;2024-01-06T08:55:22;8.63;;;4.40;;
12774;SDS011;6451;42.630;23.382;2024-01-06T08:57:51;7.33;;;5.20;;
12774;SDS011;6451;42.630;23.382;2024-01-06T09:00:18;10.67;;;6.20;;
12774;SDS011;6451;42.630;23.382;2024-01-06T09:02:45;13.00;;;6.60;;
12774;SDS011;6451;42.630;23.382;2024-01-06T09:05:12;14.03;;;7.80;;
12774;SDS011;6451;42.630;23.382;2024-01-06T09:07:39;17.97;;;11.93;;
12774;SDS011;6451;42.630;23.382;2024-01-06T09:10:06;19.03;;;13.37;;
12774;SDS011;6451;42.630;23.382;2024-01-06T09:12:35;21.33;;;14.53;;
12774;SDS011;6451;42.630;23.382;2024-01-06T09:15:03;23.13;;;15.17;;
12774;SDS011;6451;42.630;23.382;2024-01-06T09:17:32;22.53;;;15.63;;
12774;SDS011;6451;42.630;23.382;2024-01-06T09:20:01;20.63;;;15.20;;
12774;SDS011;6451;42.630;23.382;2024-01-06T09:22:28;21.63;;;15.00;;
12774;SDS011;6451;42.630;23.382;2024-01-06T09:24:55;20.20;;;14.57;;
12774;SDS011;6451;42.630;23.382;2024-01-06T09:27:22;20.30;;;13.50;;
12774;SDS011;6451;42.630;23.382;2024-01-06T09:29:52;18.13;;;13.07;;
12774;SDS011;6451;42.630;23.382;2024-01-06T09:32:20;16.30;;;12.33;;
12774;SDS011;6451;42.630;23.382;2024-01-06T09:35:01;15.60;;;12.23;;
12774;SDS011;6451;42.630;23.382;2024-01-06T09:37:34;18.27;;;11.60;;
12774;SDS011;6451;42.630;23.382;2024-01-06T09:40:01;17.13;;;11.77;;
12774;SDS011;6451;42.630;23.382;2024-01-06T09:42:29;16.47;;;9.53;;
12774;SDS011;6451;42.630;23.382;2024-01-06T09:44:56;13.73;;;9.20;;
12774;SDS011;6451;42.630;23.382;2024-01-06T09:47:26;16.50;;;10.00;;
12774;SDS011;6451;42.630;23.382;2024-01-06T09:49:57;14.87;;;9.00;;
12774;SDS011;6451;42.630;23.382;2024-01-06T09:55:31;14.13;;;9.33;;
12774;SDS011;6451;42.630;23.382;2024-01-06T09:57:58;13.67;;;9.43;;
12774;SDS011;6451;42.630;23.382;2024-01-06T10:00:27;16.50;;;11.17;;
12774;SDS011;6451;42.630;23.382;2024-01-06T10:02:59;21.97;;;13.40;;
12774;SDS011;6451;42.630;23.382;2024-01-06T10:05:35;20.77;;;15.03;;
12774;SDS011;6451;42.630;23.382;2024-01-06T10:10:37;28.10;;;20.27;;
12774;SDS011;6451;42.630;23.382;2024-01-06T10:13:08;37.80;;;24.33;;
12774;SDS011;6451;42.630;23.382;2024-01-06T10:15:36;33.30;;;24.27;;
12774;SDS011;6451;42.630;23.382;2024-01-06T10:18:05;33.27;;;25.57;;
12774;SDS011;6451;42.630;23.382;2024-01-06T10:20:33;38.20;;;27.30;;
12774;SDS011;6451;42.630;23.382;2024-01-06T10:23:04;38.17;;;27.53;;
12774;SDS011;6451;42.630;23.382;2024-01-06T10:25:32;33.87;;;23.70;;
12774;SDS011;6451;42.630;23.382;2024-01-06T10:28:00;30.87;;;22.27;;
12774;SDS011;6451;42.630;23.382;2024-01-06T10:30:49;34.10;;;20.03;;
12774;SDS011;6451;42.630;23.382;2024-01-06T10:33:21;32.33;;;20.10;;
12774;SDS011;6451;42.630;23.382;2024-01-06T10:35:49;32.90;;;20.77;;
12774;SDS011;6451;42.630;23.382;2024-01-06T10:38:21;30.13;;;20.30;;
12774;SDS011;6451;42.630;23.382;2024-01-06T10:40:59;30.50;;;19.93;;
12774;SDS011;6451;42.630;23.382;2024-01-06T10:43:29;27.37;;;19.57;;
12774;SDS011;6451;42.630;23.382;2024-01-06T10:46:03;30.80;;;19.70;;
12774;SDS011;6451;42.630;23.382;2024-01-06T10:48:33;26.30;;;18.60;;
12774;SDS011;6451;42.630;23.382;2024-01-06T10:51:03;27.07;;;19.30;;
12774;SDS011;6451;42.630;23.382;2024-01-06T10:53:33;27.17;;;19.73;;
12774;SDS011;6451;42.630;23.382;2024-01-06T10:56:03;25.43;;;19.10;;
12774;SDS011;6451;42.630;23.382;2024-01-06T10:58:40;28.97;;;19.30;;
12774;SDS011;6451;42.630;23.382;2024-01-06T11:01:19;23.03;;;16.30;;
12774;SDS011;6451;42.630;23.382;2024-01-06T11:04:01;22.37;;;16.23;;
12774;SDS011;6451;42.630;23.382;2024-01-06T11:06:30;23.30;;;15.17;;
12774;SDS011;6451;42.630;23.382;2024-01-06T11:09:14;21.73;;;13.63;;
12774;SDS011;6451;42.630;23.382;2024-01-06T11:11:46;19.30;;;13.23;;
12774;SDS011;6451;42.630;23.382;2024-01-06T11:14:21;18.97;;;13.90;;
12774;SDS011;6451;42.630;23.382;2024-01-06T11:16:50;19.17;;;13.30;;
12774;SDS011;6451;42.630;23.382;2024-01-06T11:22:24;22.63;;;14.50;;
12774;SDS011;6451;42.630;23.382;2024-01-06T11:24:54;28.17;;;15.67;;
12774;SDS011;6451;42.630;23.382;2024-01-06T11:27:23;29.70;;;16.10;;
12774;SDS011;6451;42.630;23.382;2024-01-06T11:30:01;25.60;;;15.77;;
12774;SDS011;6451;42.630;23.382;2024-01-06T11:32:34;29.10;;;18.03;;
12774;SDS011;6451;42.630;23.382;2024-01-06T11:35:09;28.63;;;17.07;;
12774;SDS011;6451;42.630;23.382;2024-01-06T11:37:58;21.13;;;14.73;;
12774;SDS011;6451;42.630;23.382;2024-01-06T11:40:33;22.13;;;12.77;;
12774;SDS011;6451;42.630;23.382;2024-01-06T11:43:06;20.13;;;11.90;;
12774;SDS011;6451;42.630;23.382;2024-01-06T11:45:49;21.70;;;12.77;;
12774;SDS011;6451;42.630;23.382;2024-01-06T11:48:30;18.20;;;12.30;;
12774;SDS011;6451;42.630;23.382;2024-01-06T11:51:04;20.90;;;10.80;;
12774;SDS011;6451;42.630;23.382;2024-01-06T11:53:34;15.73;;;9.43;;
12774;SDS011;6451;42.630;23.382;2024-01-06T11:56:04;11.77;;;8.97;;
12774;SDS011;6451;42.630;23.382;2024-01-06T11:58:34;15.77;;;8.27;;
12774;SDS011;6451;42.630;23.382;2024-01-06T12:01:09;12.80;;;8.37;;
12774;SDS011;6451;42.630;23.382;2024-01-06T12:03:42;15.93;;;9.30;;
12774;SDS011;6451;42.630;23.382;2024-01-06T12:06:10;17.47;;;10.37;;
12774;SDS011;6451;42.630;23.382;2024-01-06T12:08:43;15.30;;;11.97;;
12774;SDS011;6451;42.630;23.382;2024-01-06T12:11:23;15.43;;;11.43;;
12774;SDS011;6451;42.630;23.382;2024-01-06T12:13:53;14.00;;;9.60;;
12774;SDS011;6451;42.630;23.382;2024-01-06T12:16:29;11.33;;;6.73;;
12774;SDS011;6451;42.630;23.382;2024-01-06T12:19:03;10.23;;;7.33;;
12774;SDS011;6451;42.630;23.382;2024-01-06T12:21:44;15.50;;;7.63;;
12774;SDS011;6451;42.630;23.382;2024-01-06T12:24:23;12.93;;;8.03;;
12774;SDS011;6451;42.630;23.382;2024-01-06T12:27:02;14.37;;;9.30;;
12774;SDS011;6451;42.630;23.382;2024-01-06T12:29:30;15.50;;;9.30;;
12774;SDS011;6451;42.630;23.382;2024-01-06T12:32:01;12.87;;;9.03;;
12774;SDS011;6451;42.630;23.382;2024-01-06T12:34:34;14.63;;;9.70;;
12774;SDS011;6451;42.630;23.382;2024-01-06T12:37:04;14.77;;;8.80;;
12774;SDS011;6451;42.630;23.382;2024-01-06T12:39:34;14.23;;;8.53;;
12774;SDS011;6451;42.630;23.382;2024-01-06T12:42:02;13.93;;;8.70;;
12774;SDS011;6451;42.630;23.382;2024-01-06T12:44:29;11.30;;;7.87;;
12774;SDS011;6451;42.630;23.382;2024-01-06T12:46:57;11.57;;;7.93;;
12774;SDS011;6451;42.630;23.382;2024-01-06T12:49:24;12.63;;;7.90;;
12774;SDS011;6451;42.630;23.382;2024-01-06T12:51:52;12.00;;;8.07;;
12774;SDS011;6451;42.630;23.382;2024-01-06T12:54:20;17.13;;;9.03;;
12774;SDS011;6451;42.630;23.382;2024-01-06T12:56:47;15.47;;;8.13;;
12774;SDS011;6451;42.630;23.382;2024-01-06T12:59:15;17.80;;;9.63;;
12774;SDS011;6451;42.630;23.382;2024-01-06T13:01:41;14.90;;;9.20;;
12774;SDS011;6451;42.630;23.382;2024-01-06T13:04:08;14.47;;;9.57;;
12774;SDS011;6451;42.630;23.382;2024-01-06T13:06:35;20.00;;;9.60;;
12774;SDS011;6451;42.630;23.382;2024-01-06T13:09:03;13.93;;;9.05;;
12774;SDS011;6451;42.630;23.382;2024-01-06T13:11:33;14.63;;;9.73;;
12774;SDS011;6451;42.630;23.382;2024-01-06T13:14:01;14.85;;;9.00;;
12774;SDS011;6451;42.630;23.382;2024-01-06T13:16:43;12.05;;;8.65;;
12774;SDS011;6451;42.630;23.382;2024-01-06T13:19:18;17.33;;;9.68;;
12774;SDS011;6451;42.630;23.382;2024-01-06T13:21:45;18.60;;;10.27;;
12774;SDS011;6451;42.630;23.382;2024-01-06T13:24:12;17.90;;;9.95;;
12774;SDS011;6451;42.630;23.382;2024-01-06T13:26:40;20.83;;;10.52;;
12774;SDS011;6451;42.630;23.382;2024-01-06T13:29:08;12.93;;;9.63;;
12774;SDS011;6451;42.630;23.382;2024-01-06T13:31:38;18.65;;;9.85;;
12774;SDS011;6451;42.630;23.382;2024-01-06T13:34:05;19.10;;;9.37;;
12774;SDS011;6451;42.630;23.382;2024-01-06T13:36:33;16.07;;;10.13;;
12774;SDS011;6451;42.630;23.382;2024-01-06T13:39:03;17.07;;;9.63;;
12774;SDS011;6451;42.630;23.382;2024-01-06T13:41:44;12.83;;;9.87;;
12774;SDS011;6451;42.630;23.382;2024-01-06T13:44:14;18.13;;;9.63;;
12774;SDS011;6451;42.630;23.382;2024-01-06T13:46:45;19.53;;;9.27;;
12774;SDS011;6451;42.630;23.382;2024-01-06T13:49:16;16.20;;;8.57;;
12774;SDS011;6451;42.630;23.382;2024-01-06T13:51:44;12.03;;;7.83;;
12774;SDS011;6451;42.630;23.382;2024-01-06T13:54:19;11.43;;;7.87;;
12774;SDS011;6451;42.630;23.382;2024-01-06T13:56:48;11.93;;;7.60;;
12774;SDS011;6451;42.630;23.382;2024-01-06T13:59:21;11.13;;;7.10;;
12774;SDS011;6451;42.630;23.382;2024-01-06T14:01:50;15.37;;;7.73;;
12774;SDS011;6451;42.630;23.382;2024-01-06T14:04:23;11.73;;;7.47;;
12774;SDS011;6451;42.630;23.382;2024-01-06T14:06:53;13.97;;;7.80;;
12774;SDS011;6451;42.630;23.382;2024-01-06T14:09:26;10.20;;;6.83;;
12774;SDS011;6451;42.630;23.382;2024-01-06T14:11:59;11.83;;;6.63;;
12774;SDS011;6451;42.630;23.382;2024-01-06T14:14:43;11.87;;;7.03;;
12774;SDS011;6451;42.630;23.382;2024-01-06T14:17:21;16.27;;;7.33;;
12774;SDS011;6451;42.630;23.382;2024-01-06T14:19:49;14.53;;;6.63;;
12774;SDS011;6451;42.630;23.382;2024-01-06T14:22:21;12.37;;;6.80;;
12774;SDS011;6451;42.630;23.382;2024-01-06T14:24:53;11.47;;;6.50;;
12774;SDS011;6451;42.630;23.382;2024-01-06T14:30:13;17.20;;;7.07;;
12774;SDS011;6451;42.630;23.382;2024-01-06T14:32:40;16.80;;;7.97;;
12774;SDS011;6451;42.630;23.382;2024-01-06T14:35:10;19.23;;;8.33;;
12774;SDS011;6451;42.630;23.382;2024-01-06T14:37:41;20.70;;;8.57;;
12774;SDS011;6451;42.630;23.382;2024-01-06T14:40:10;15.73;;;8.07;;
12774;SDS011;6451;42.630;23.382;2024-01-06T14:42:38;18.60;;;7.80;;
12774;SDS011;6451;42.630;23.382;2024-01-06T14:45:11;14.37;;;6.50;;
12774;SDS011;6451;42.630;23.382;2024-01-06T14:47:49;21.33;;;8.13;;
12774;SDS011;6451;42.630;23.382;2024-01-06T14:50:21;14.97;;;8.23;;
12774;SDS011;6451;42.630;23.382;2024-01-06T14:52:53;18.20;;;8.43;;
12774;SDS011;6451;42.630;23.382;2024-01-06T14:55:23;26.03;;;9.17;;
12774;SDS011;6451;42.630;23.382;2024-01-06T14:57:52;23.30;;;9.00;;
12774;SDS011;6451;42.630;23.382;2024-01-06T15:00:19;17.20;;;8.87;;